Overview Statistics Trail Chart Weather Telemetry Raw packets
 

This is the latest recevied weather packets stored in our database for station/object N7ZEF. If no packets are shown the sender has not sent any weather packets the latest 10 day(s).

<< 1 2 3 4 5 6 7 >>
Time Temp. Humidity Pressure Rain* Wind** Luminosity Snow
1778135546 5° C 52% 1019.6 hPa 0 mm - - -
1778134943 5° C 52% 1019.4 hPa 0 mm - - -
1778134344 5.56° C 50% 1019.4 hPa 0 mm - - -
1778133740 6.11° C 49% 1019.3 hPa 0 mm - - -
1778132537 6.11° C 51% 1019.2 hPa 0 mm - - -
1778131936 6.11° C 50% 1019.2 hPa 0 mm - - -
1778129530 5.56° C 52% 1019.3 hPa 0 mm - - -
1778128329 5.56° C 56% 1019.3 hPa 0 mm - - -
1778127729 5.56° C 56% 1019.4 hPa 0 mm - - -
1778127137 5.56° C 55% 1019.4 hPa 0 mm - - -
1778126524 6.11° C 55% 1019.4 hPa 0 mm - - -
1778125924 6.11° C 55% 1019.3 hPa 0 mm - - -
1778124721 6.11° C 55% 1019.4 hPa 0 mm - - -
1778123518 6.11° C 53% 1019.3 hPa 0 mm - - -
1778122916 6.11° C 52% 1019.3 hPa 0 mm - - -
1778122316 6.11° C 51% 1019.2 hPa 0 mm - - -
1778121713 6.67° C 50% 1019.3 hPa 0 mm - - -
1778121111 6.11° C 50% 1019.3 hPa 0 mm - - -
1778119908 6.67° C 48% 1019.2 hPa 0 mm - - -
1778119307 7.22° C 48% 1019 hPa 0 mm - - -
1778118104 7.78° C 45% 1018.9 hPa 0 mm - - -
1778117503 8.33° C 41% 1018.9 hPa 0 mm - - -
1778116902 8.89° C 39% 1018.9 hPa 0 mm - - -
1778116303 9.44° C 37% 1018.9 hPa 0 mm - - -
1778115712 9.44° C 38% 1018.8 hPa 0 mm - - -

* Rain latest hour (hover to see other rain measurements)
** Current wind speed in m/s (hover to see current wind gust speed)